You are not logged in, Click here to log in
上海虹橋國際機場SHA / ZSSS 中國上海市長寧區、閔行區
ICAO: ZSSS Country: 中國上海市長寧區、閔行區
Latitude: 31.1919 Longitude: 121.337
Total Arrivals: 67 Total Departures: 66
Latest Arrival: MU5098 (RCSS-ZSSS)CHU. CHUHAO Latest Departure: CA1830 (ZSSS-ZGGG)CHU. CHUHAO
Scenery:
METAR : ZSSS 110500Z 08003MPS 050V110 7000 -RA BKN007 OVC033 27/26 Q1005 NOSIG

上海虹橋國際機場SHA